Eatonville, WA

9:36 AM PDT on September 02, 2015 (GMT -0700)
Central Eatonville | | Change Station
CLOSE
Current Station
Personal Weather Station
Location: Eatonville, WA
Elevation: 850 ft
Nearby Weather Stations

Elev 850 ft 46.87 °N, 122.27 °W | Updated 1 second ago

Mostly Cloudy
Mostly Cloudy
55.5 °F
Feels Like 55.5 °F
N
0.0
Wind Variable Wind from SSE
Gusts 1.0 mph

Today
High -- | Low -- °F
--% Chance of Precip.
Yesterday
High -- | Low -- °F
Precip. -- in
6:29 AM 7:46 PM
Waning Gibbous, 79% visible
Pressure 29.91 in
Visibility 10.0 miles
Clouds Mostly Cloudy 5000 ft
Mostly Cloudy 7500 ft
Dew Point 53 °F
Humidity 90%
Rainfall 0.05 in
Snow Depth Not available.
UV 1 out of 12
Pollen .50 out of 12
Air Quality Not available.
Flu Activity Not available.
METAR KPLU 021615Z AUTO 00000KT 10SM BKN050 BKN075 14/13 A2991 RMK AO2
Pressure 29.91 in
Visibility 10.0 miles
Clouds Mostly Cloudy 5000 ft
Mostly Cloudy 7500 ft
Dew Point 53 °F
Humidity 90%
Rainfall 0.05 in
Snow Depth Not available.
UV 1 out of 12
Pollen .50 out of 12
Air Quality Not available.
Flu Activity Not available.
METAR KPLU 021615Z AUTO 00000KT 10SM BKN050 BKN075 14/13 A2991 RMK AO2

10-Day Weather Forecast

×

Almanac

Astronomy

Sep. 02, 2015 Rise Set
Actual Time
Civil Twilight
Nautical Twilight
Astronomical Twilight
Moon
Length of Visible Light
Length of Day
Tomorrow will be .
, % of the Moon is Illuminated

Today's Extremes

State Highs State Lows

Community

WunderPhotos

Upload Photos

1,851,783 photos uploaded!

WunderBlogs® & News

Nearby

Air Quality

  Air Quality AQ Index Pollutant
Not available.

Snow Depth

Station Depth Elevation

Earthquake Activity

City Distance Mag. Time & Date
Minimum magnitude displayed is 2.5.

Coastal Water Temperatures

Place Temperature

Stations

Nearby Weather Stations

Station Location Temp. Windchill Dew Point Humidity Wind Precip. Elev Updated Type